Time;durP1;ratioP1;P1;durP2;ratioP2;P2;SDS_P1;SDS_P2;PMS_P1;PMS_P2;Temp;Humidity;BMP_temperature;BMP_pressure;BME280_temperature;BME280_humidity;BME280_pressure;Samples;Min_cycle;Max_cycle;Signal;HPM_P1;HPM_P2
2022/09/28 00:02:51;;;;;;;3.90;2.90;;;9.40;99.90;;;;;;10486016;28;20668;-73
2022/09/28 00:07:53;;;;;;;10.17;3.17;;;9.40;99.90;;;;;;10491438;28;20215;-73
2022/09/28 00:12:56;;;;;;;5.63;2.80;;;9.30;99.90;;;;;;10469417;28;20611;-71
2022/09/28 00:17:57;;;;;;;6.07;3.17;;;9.30;99.90;;;;;;10466294;28;20240;-71
2022/09/28 00:22:57;;;;;;;4.80;3.30;;;9.40;99.90;;;;;;10468525;28;20219;-72
2022/09/28 00:27:58;;;;;;;8.80;3.83;;;9.40;99.90;;;;;;10485903;28;20224;-72
2022/09/28 00:32:58;;;;;;;6.40;3.93;;;9.40;99.90;;;;;;10490031;28;20667;-72
2022/09/28 00:38:01;;;;;;;8.33;4.40;;;9.40;99.90;;;;;;10478752;28;20236;-73
2022/09/28 00:43:19;;;;;;;8.87;5.10;;;9.50;99.90;;;;;;10482846;28;20214;-72
2022/09/28 00:48:19;;;;;;;8.40;4.90;;;9.50;99.90;;;;;;10466075;28;20210;-72
2022/09/28 00:53:27;;;;;;;9.73;6.33;;;9.50;99.90;;;;;;10475264;28;20217;-74
2022/09/28 00:58:32;;;;;;;13.43;6.83;;;9.50;99.90;;;;;;10469095;28;20260;-71
2022/09/28 01:03:33;;;;;;;10.80;6.77;;;9.60;99.90;;;;;;10478795;28;20889;-73
2022/09/28 01:08:34;;;;;;;9.63;7.10;;;9.50;99.90;;;;;;10476268;28;20229;-73
2022/09/28 01:13:36;;;;;;;9.10;6.40;;;9.50;99.90;;;;;;10474649;28;20938;-73
2022/09/28 01:19:00;;;;;;;12.93;6.80;;;9.50;99.90;;;;;;10470240;28;20931;-72
2022/09/28 01:24:20;;;;;;;9.00;6.13;;;9.50;99.90;;;;;;10487079;28;20234;-72
2022/09/28 01:29:43;;;;;;;10.30;5.77;;;9.50;99.90;;;;;;10483128;28;20703;-73
2022/09/28 01:35:13;;;;;;;10.10;6.30;;;9.50;99.90;;;;;;10466368;28;20225;-73
2022/09/28 01:40:15;;;;;;;7.60;5.17;;;9.50;99.90;;;;;;10492862;28;20237;-72
2022/09/28 01:45:26;;;;;;;11.03;5.90;;;9.60;99.90;;;;;;10484834;28;20520;-73
2022/09/28 01:50:29;;;;;;;6.07;4.70;;;9.60;99.90;;;;;;10484845;28;20596;-72
2022/09/28 01:55:43;;;;;;;6.87;4.63;;;9.60;99.90;;;;;;10471285;28;20230;-73
2022/09/28 02:00:50;;;;;;;11.53;5.23;;;9.60;99.90;;;;;;10475882;28;20292;-73
2022/09/28 02:06:01;;;;;;;11.13;5.40;;;9.60;99.90;;;;;;10485472;28;20312;-71
2022/09/28 02:11:13;;;;;;;8.23;5.40;;;9.60;99.90;;;;;;10483896;28;20234;-74
2022/09/28 02:16:25;;;;;;;8.17;5.30;;;9.70;99.90;;;;;;10474784;28;20693;-73
2022/09/28 02:21:30;;;;;;;10.60;5.63;;;9.70;99.90;;;;;;10463825;28;20234;-74
2022/09/28 02:26:36;;;;;;;8.00;5.40;;;9.80;99.90;;;;;;10482595;28;20234;-75
2022/09/28 02:31:37;;;;;;;11.93;5.40;;;9.80;99.90;;;;;;10475631;28;20226;-75
2022/09/28 02:36:38;;;;;;;6.87;5.30;;;9.80;99.90;;;;;;10485402;28;20226;-73
2022/09/28 02:42:10;;;;;;;6.80;5.03;;;9.90;99.90;;;;;;10489935;28;20594;-74
2022/09/28 02:47:35;;;;;;;5.73;4.60;;;9.90;99.90;;;;;;10478009;28;20288;-71
2022/09/28 02:52:58;;;;;;;4.80;4.30;;;9.80;99.90;;;;;;10481289;28;20222;-72
2022/09/28 02:58:31;;;;;;;4.27;3.87;;;9.90;99.90;;;;;;10456031;28;20240;-74
2022/09/28 03:03:56;;;;;;;3.87;3.00;;;9.90;99.90;;;;;;10456968;28;20241;-72
2022/09/28 03:09:03;;;;;;;4.03;2.90;;;9.90;99.90;;;;;;10461894;28;20241;-73
2022/09/28 03:14:04;;;;;;;3.73;2.90;;;9.90;99.90;;;;;;10469131;28;20638;-74
2022/09/28 03:19:08;;;;;;;8.97;2.30;;;9.90;99.90;;;;;;10472191;28;20273;-74
2022/09/28 03:24:10;;;;;;;3.10;2.40;;;9.90;99.90;;;;;;10478692;28;20250;-75
2022/09/28 03:29:10;;;;;;;2.73;2.10;;;9.90;99.90;;;;;;10486935;28;20256;-74
2022/09/28 03:34:11;;;;;;;0.97;0.97;;;9.90;99.90;;;;;;10483732;28;20660;-75
2022/09/28 03:39:11;;;;;;;1.47;1.30;;;9.80;99.90;;;;;;10481652;28;20230;-74
2022/09/28 03:44:12;;;;;;;2.23;1.43;;;9.60;99.90;;;;;;10476920;28;20227;-74
2022/09/28 03:49:13;;;;;;;1.87;1.20;;;9.60;99.90;;;;;;10471867;28;20261;-73
2022/09/28 03:54:13;;;;;;;1.20;1.10;;;9.60;99.90;;;;;;10494240;28;20249;-73
2022/09/28 03:59:14;;;;;;;2.23;1.03;;;9.60;99.90;;;;;;10477465;28;20234;-72
2022/09/28 04:04:15;;;;;;;1.73;1.43;;;9.60;99.90;;;;;;10489571;28;20221;-71
2022/09/28 04:09:15;;;;;;;2.20;1.30;;;9.60;99.90;;;;;;10479318;28;20256;-71
2022/09/28 04:14:16;;;;;;;2.90;1.20;;;9.60;99.90;;;;;;10478437;28;20601;-71
2022/09/28 04:19:17;;;;;;;1.30;0.77;;;9.70;99.90;;;;;;10476759;28;20279;-72
2022/09/28 04:24:19;;;;;;;1.80;1.00;;;9.70;99.90;;;;;;10481350;28;20224;-73
2022/09/28 04:29:19;;;;;;;4.27;1.00;;;9.70;99.90;;;;;;10481762;28;20245;-72
2022/09/28 04:34:21;;;;;;;1.53;0.70;;;9.60;99.90;;;;;;10482453;28;20230;-74
2022/09/28 04:39:22;;;;;;;2.03;0.90;;;9.60;99.90;;;;;;10471612;28;20230;-72
2022/09/28 04:44:22;;;;;;;0.70;0.70;;;9.40;99.90;;;;;;10477502;28;20703;-74
2022/09/28 04:49:23;;;;;;;2.47;0.90;;;9.30;99.90;;;;;;10481417;28;20236;-71
2022/09/28 04:54:24;;;;;;;1.60;0.90;;;9.30;99.90;;;;;;10483649;28;20226;-69
2022/09/28 04:59:25;;;;;;;2.60;2.40;;;9.30;99.90;;;;;;10477535;28;20229;-69
2022/09/28 05:04:27;;;;;;;2.17;1.30;;;9.40;99.90;;;;;;10476570;28;20249;-68
2022/09/28 05:09:27;;;;;;;0.90;0.90;;;9.40;99.90;;;;;;10419552;28;20244;-68
2022/09/28 05:14:28;;;;;;;2.80;1.10;;;9.40;99.90;;;;;;10395109;28;20219;-66
2022/09/28 05:19:29;;;;;;;2.53;1.20;;;9.40;99.90;;;;;;10399002;28;20282;-68
2022/09/28 05:24:30;;;;;;;1.63;1.13;;;9.40;99.90;;;;;;10398121;28;20216;-68
2022/09/28 05:29:30;;;;;;;2.87;1.17;;;9.40;99.90;;;;;;10397799;28;20631;-74
2022/09/28 05:34:31;;;;;;;2.47;1.47;;;9.50;99.90;;;;;;10397284;28;20224;-73
2022/09/28 05:39:32;;;;;;;1.87;1.60;;;9.50;99.90;;;;;;10392024;28;20242;-73
2022/09/28 05:44:33;;;;;;;3.50;1.50;;;9.50;99.90;;;;;;10396067;28;20262;-74
2022/09/28 05:49:33;;;;;;;2.17;1.10;;;9.50;99.90;;;;;;10394345;28;20239;-74
2022/09/28 05:54:34;;;;;;;3.60;1.43;;;9.60;99.90;;;;;;10394808;28;20246;-73
2022/09/28 05:59:35;;;;;;;3.43;1.53;;;9.60;99.90;;;;;;10392960;28;20224;-74
2022/09/28 06:04:35;;;;;;;3.33;1.93;;;9.60;99.90;;;;;;10402813;28;20215;-75
2022/09/28 06:09:36;;;;;;;3.43;2.17;;;9.70;99.90;;;;;;10399295;28;20266;-74
2022/09/28 06:14:38;;;;;;;2.57;1.87;;;9.80;99.90;;;;;;10403349;28;20286;-75
2022/09/28 06:19:39;;;;;;;4.80;2.50;;;9.80;99.90;;;;;;10401631;28;20736;-75
2022/09/28 06:24:40;;;;;;;4.83;3.03;;;9.80;99.90;;;;;;10401449;28;20223;-74
2022/09/28 06:29:40;;;;;;;3.00;2.23;;;9.90;99.90;;;;;;10400333;28;20251;-75
2022/09/28 06:34:41;;;;;;;3.80;3.30;;;10.10;99.90;;;;;;10401787;28;20338;-72
2022/09/28 06:39:42;;;;;;;4.00;2.37;;;10.30;99.90;;;;;;10401122;28;20220;-75
2022/09/28 06:44:42;;;;;;;3.17;1.70;;;10.80;99.90;;;;;;10400143;28;20251;-74
2022/09/28 06:49:45;;;;;;;3.17;2.00;;;11.10;99.90;;;;;;10399540;28;20247;-75
2022/09/28 06:54:45;;;;;;;3.90;1.90;;;12.10;99.90;;;;;;10397320;28;20287;-74
2022/09/28 06:59:46;;;;;;;4.17;1.80;;;12.20;99.90;;;;;;10403872;28;20706;-75
2022/09/28 07:04:46;;;;;;;4.30;1.70;;;11.90;99.90;;;;;;10411519;28;20354;-74
2022/09/28 07:09:51;;;;;;;2.00;1.60;;;11.80;99.90;;;;;;10398356;28;20220;-74
2022/09/28 07:14:56;;;;;;;2.83;1.50;;;11.80;99.90;;;;;;10397524;28;20232;-73
2022/09/28 07:19:57;;;;;;;2.47;1.27;;;11.60;99.90;;;;;;10400348;28;20760;-75
2022/09/28 07:24:58;;;;;;;1.67;1.17;;;12.10;99.90;;;;;;10400745;28;20223;-75
2022/09/28 07:29:59;;;;;;;1.87;1.20;;;12.60;99.90;;;;;;10397028;28;20714;-74
2022/09/28 07:35:06;;;;;;;6.27;3.77;;;12.80;99.90;;;;;;10401769;28;20835;-74
2022/09/28 07:45:28;;;;;;;2.93;0.60;;;14.10;99.90;;;;;;10398141;28;20228;-74
2022/09/28 07:50:30;;;;;;;7.63;0.87;;;19.50;99.90;;;;;;10401160;28;20273;-75
2022/09/28 07:55:30;;;;;;;1.23;0.70;;;23.00;94.20;;;;;;10397050;28;20266;-75
2022/09/28 08:00:32;;;;;;;1.23;0.70;;;26.00;74.30;;;;;;10395560;28;20718;-74
2022/09/28 08:05:34;;;;;;;3.13;0.70;;;27.50;55.10;;;;;;10395958;28;20253;-74
2022/09/28 08:10:36;;;;;;;2.03;1.00;;;28.10;53.00;;;;;;10398674;28;20580;-76
2022/09/28 08:15:37;;;;;;;1.10;0.77;;;27.90;51.20;;;;;;10398552;28;20227;-75
2022/09/28 08:25:57;;;;;;;2.63;0.80;;;25.70;53.40;;;;;;10419880;28;20266;-73
2022/09/28 08:31:02;;;;;;;0.83;0.50;;;22.50;59.90;;;;;;10402968;28;20227;-75
2022/09/28 08:36:04;;;;;;;1.90;0.77;;;20.70;65.60;;;;;;10403604;28;20318;-74
2022/09/28 08:41:19;;;;;;;4.57;0.90;;;18.90;73.80;;;;;;10410612;28;20224;-75
2022/09/28 08:46:23;;;;;;;5.30;0.80;;;18.10;79.40;;;;;;10404818;28;20415;-75
2022/09/28 08:51:36;;;;;;;2.10;0.80;;;17.90;82.20;;;;;;10405965;28;20233;-75
2022/09/28 08:56:56;;;;;;;0.77;0.63;;;17.10;83.80;;;;;;10406281;28;20231;-74
2022/09/28 09:02:03;;;;;;;2.17;0.70;;;16.60;88.70;;;;;;10402926;28;20225;-74
2022/09/28 09:07:25;;;;;;;3.07;1.03;;;16.10;90.50;;;;;;10400501;28;21895;-75
2022/09/28 09:13:16;;;;;;;3.13;0.90;;;15.70;93.40;;;;;;10404344;28;20285;-74
2022/09/28 09:18:36;;;;;;;4.47;0.93;;;15.10;95.80;;;;;;10354761;28;20224;-75
2022/09/28 09:23:45;;;;;;;1.77;0.77;;;18.90;94.00;;;;;;10404756;28;20239;-75
2022/09/28 09:29:19;;;;;;;1.53;0.73;;;21.10;78.30;;;;;;10400469;28;20222;-75
2022/09/28 09:34:31;;;;;;;2.17;0.70;;;23.50;68.00;;;;;;10401927;28;20235;-74
2022/09/28 09:39:54;;;;;;;1.83;0.67;;;24.60;59.50;;;;;;10402802;28;20224;-74
2022/09/28 09:45:04;;;;;;;1.67;0.57;;;25.40;58.40;;;;;;10399958;28;20248;-75
2022/09/28 09:50:28;;;;;;;0.90;0.60;;;26.50;52.90;;;;;;10401724;28;20469;-75
2022/09/28 09:55:39;;;;;;;2.63;0.63;;;26.20;51.00;;;;;;10400498;28;20228;-74
2022/09/28 10:00:48;;;;;;;2.70;0.73;;;27.10;48.00;;;;;;10399144;28;20249;-74
2022/09/28 10:06:12;;;;;;;3.30;1.00;;;29.30;45.10;;;;;;10400834;28;20227;-76
2022/09/28 10:11:20;;;;;;;1.07;0.80;;;30.50;41.00;;;;;;10400961;28;20227;-75
2022/09/28 10:16:21;;;;;;;1.27;0.67;;;28.10;43.20;;;;;;10399947;28;20215;-74
2022/09/28 10:21:23;;;;;;;1.47;0.70;;;28.30;44.20;;;;;;10400140;28;20226;-75
2022/09/28 10:26:29;;;;;;;1.93;0.67;;;26.70;44.80;;;;;;10398865;28;20720;-75
2022/09/28 10:31:55;;;;;;;2.90;0.97;;;23.70;50.50;;;;;;10399294;28;20314;-75
2022/09/28 10:37:05;;;;;;;2.60;0.70;;;21.30;55.10;;;;;;10395489;28;20666;-75
2022/09/28 10:42:11;;;;;;;2.50;0.60;;;19.10;60.00;;;;;;10397029;28;20234;-74
2022/09/28 10:47:16;;;;;;;0.63;0.50;;;17.90;66.80;;;;;;10398102;28;20225;-75
2022/09/28 10:52:47;;;;;;;1.57;0.70;;;17.00;72.20;;;;;;10399193;28;20352;-75
2022/09/28 10:57:48;;;;;;;0.67;0.40;;;16.40;76.50;;;;;;10395234;28;20221;-74
2022/09/28 11:02:48;;;;;;;3.17;0.67;;;16.30;78.90;;;;;;10391216;28;20318;-75
2022/09/28 11:07:51;;;;;;;1.23;0.60;;;16.70;77.80;;;;;;10397403;28;20652;-75
2022/09/28 11:12:53;;;;;;;1.47;0.60;;;17.70;75.60;;;;;;10399879;28;20221;-75
2022/09/28 11:17:54;;;;;;;2.53;0.70;;;18.90;70.90;;;;;;10395686;28;20221;-74
2022/09/28 11:23:14;;;;;;;1.93;0.70;;;19.40;67.80;;;;;;10398318;28;20226;-72
2022/09/28 11:28:24;;;;;;;0.70;0.50;;;19.60;66.10;;;;;;10397901;28;20640;-73
2022/09/28 11:33:32;;;;;;;1.97;0.70;;;19.40;67.10;;;;;;10395496;28;20253;-72
2022/09/28 11:38:56;;;;;;;1.30;0.60;;;18.80;69.00;;;;;;10392949;28;20225;-73
2022/09/28 11:44:27;;;;;;;1.90;0.53;;;18.60;70.00;;;;;;10401978;28;20231;-73
2022/09/28 11:49:37;;;;;;;1.93;0.77;;;18.00;71.60;;;;;;10387388;28;20220;-72
2022/09/28 11:54:46;;;;;;;1.07;0.40;;;18.00;73.30;;;;;;10391917;28;20222;-72
2022/09/28 11:59:53;;;;;;;1.03;0.70;;;18.20;70.30;;;;;;10385383;28;20242;-72
2022/09/28 12:05:27;;;;;;;1.47;0.70;;;18.70;68.00;;;;;;10388733;28;20303;-73
2022/09/28 12:10:50;;;;;;;0.97;0.57;;;18.90;67.60;;;;;;10386494;28;20265;-72
2022/09/28 12:16:08;;;;;;;2.27;0.70;;;18.80;67.20;;;;;;10398496;28;20216;-72
2022/09/28 12:21:32;;;;;;;2.57;1.07;;;18.30;68.40;;;;;;10391687;28;20300;-73
2022/09/28 12:26:45;;;;;;;1.20;0.57;;;18.60;67.90;;;;;;10394481;28;20217;-74
2022/09/28 12:32:04;;;;;;;1.40;0.60;;;18.80;66.20;;;;;;10383443;28;20395;-75
2022/09/28 12:37:43;;;;;;;0.83;0.70;;;18.80;67.20;;;;;;10402484;28;20303;-71
2022/09/28 12:43:18;;;;;;;2.10;0.90;;;18.90;66.40;;;;;;10390550;28;20208;-72
2022/09/28 12:48:19;;;;;;;1.43;1.10;;;18.80;66.90;;;;;;10382589;28;20229;-72
2022/09/28 12:53:47;;;;;;;2.77;0.60;;;18.70;66.20;;;;;;10388528;28;20236;-72
2022/09/28 12:58:49;;;;;;;2.13;0.40;;;18.50;67.20;;;;;;10390787;28;20225;-72
2022/09/28 13:03:52;;;;;;;2.13;0.60;;;18.50;66.40;;;;;;10378070;28;20227;-72
2022/09/28 13:09:05;;;;;;;1.07;0.40;;;18.30;66.60;;;;;;10406809;28;20239;-71
2022/09/28 13:14:36;;;;;;;0.53;0.30;;;17.90;66.30;;;;;;10400506;28;20862;-72
2022/09/28 13:19:56;;;;;;;1.27;0.50;;;17.70;66.80;;;;;;10406988;28;20274;-71
2022/09/28 13:25:03;;;;;;;0.97;0.50;;;17.50;66.90;;;;;;10406495;28;20221;-71
2022/09/28 13:30:05;;;;;;;0.23;0.23;;;17.30;67.90;;;;;;10394528;28;20233;-71
2022/09/28 13:35:11;;;;;;;0.53;0.50;;;17.10;70.00;;;;;;10400041;28;20220;-73
2022/09/28 13:40:12;;;;;;;2.73;0.50;;;17.00;71.40;;;;;;10387790;28;20231;-72
2022/09/28 13:45:45;;;;;;;1.43;0.50;;;16.90;70.90;;;;;;10393575;28;20889;-72
2022/09/28 13:51:15;;;;;;;2.03;0.60;;;16.90;71.30;;;;;;10395447;28;20248;-72
2022/09/28 13:56:34;;;;;;;2.13;0.67;;;17.10;70.70;;;;;;10396391;28;20237;-72
2022/09/28 14:01:39;;;;;;;4.27;1.40;;;17.40;71.20;;;;;;10397580;28;20228;-73
2022/09/28 14:06:49;;;;;;;2.63;0.60;;;17.40;71.10;;;;;;10395588;28;20285;-72
2022/09/28 14:12:00;;;;;;;3.23;0.60;;;17.40;71.90;;;;;;10394071;28;20593;-73
2022/09/28 14:17:20;;;;;;;1.60;0.60;;;17.30;72.80;;;;;;10390467;28;20222;-72
2022/09/28 14:22:42;;;;;;;2.87;0.97;;;17.20;73.00;;;;;;10395088;28;20312;-72
2022/09/28 14:27:51;;;;;;;1.83;0.80;;;17.10;74.90;;;;;;10385890;28;20222;-71
2022/09/28 14:32:56;;;;;;;3.17;0.63;;;17.10;74.90;;;;;;10383145;28;20220;-71
2022/09/28 14:43:32;;;;;;;1.63;0.60;;;16.70;77.20;;;;;;10408075;28;20208;-73
2022/09/28 14:48:47;;;;;;;1.80;0.60;;;16.70;76.60;;;;;;10387947;28;20228;-73
2022/09/28 14:53:49;;;;;;;3.07;0.70;;;16.60;77.20;;;;;;10384543;28;20221;-72
2022/09/28 14:58:53;;;;;;;3.97;0.57;;;16.40;77.60;;;;;;10391609;28;20228;-72
2022/09/28 15:03:57;;;;;;;1.20;0.60;;;16.30;78.40;;;;;;10385898;28;20244;-71
2022/09/28 15:08:58;;;;;;;0.67;0.50;;;16.20;78.80;;;;;;10392253;28;20224;-72
2022/09/28 15:14:07;;;;;;;1.80;0.60;;;16.20;78.30;;;;;;10385961;28;20543;-72
2022/09/28 15:19:45;;;;;;;0.90;0.50;;;16.20;77.20;;;;;;10388574;28;20352;-73
2022/09/28 15:24:56;;;;;;;1.83;0.70;;;16.10;77.50;;;;;;10376600;28;20228;-72
2022/09/28 15:30:26;;;;;;;2.67;0.63;;;16.00;79.20;;;;;;10388801;28;20313;-73
2022/09/28 15:35:27;;;;;;;0.53;0.53;;;15.90;80.30;;;;;;10398290;28;20203;-71
2022/09/28 15:40:32;;;;;;;2.73;0.67;;;15.90;81.80;;;;;;10392642;28;20219;-72
2022/09/28 15:45:38;;;;;;;4.33;0.80;;;15.80;83.10;;;;;;10383428;28;20225;-72
2022/09/28 15:50:44;;;;;;;1.40;0.80;;;15.70;83.60;;;;;;10388144;28;20298;-72
2022/09/28 15:55:49;;;;;;;2.13;0.97;;;15.60;84.10;;;;;;10382318;28;20228;-73
2022/09/28 16:01:09;;;;;;;0.70;0.50;;;15.50;85.40;;;;;;10389503;28;20278;-73
2022/09/28 16:06:10;;;;;;;1.63;0.90;;;15.30;87.80;;;;;;10390901;28;20232;-73
2022/09/28 16:11:34;;;;;;;1.37;0.73;;;15.30;88.70;;;;;;10385645;28;20231;-72
2022/09/28 16:16:44;;;;;;;1.23;0.60;;;15.20;88.30;;;;;;10393567;28;20231;-72
2022/09/28 16:21:46;;;;;;;1.23;0.90;;;15.10;89.60;;;;;;10397009;28;20213;-72
2022/09/28 16:26:53;;;;;;;1.10;0.70;;;15.00;89.70;;;;;;10379900;28;20719;-72
2022/09/28 16:31:54;;;;;;;1.73;1.17;;;15.00;90.60;;;;;;10381815;28;20727;-73
2022/09/28 16:36:55;;;;;;;0.80;0.70;;;14.80;91.40;;;;;;10381671;28;20308;-72
2022/09/28 16:42:01;;;;;;;1.70;0.90;;;14.70;91.90;;;;;;10391568;28;20204;-72
2022/09/28 16:47:02;;;;;;;2.27;0.90;;;14.60;92.60;;;;;;10398799;28;20237;-73
2022/09/28 16:52:02;;;;;;;3.30;1.13;;;14.50;92.80;;;;;;10392582;28;20311;-74
2022/09/28 16:57:05;;;;;;;2.07;1.17;;;14.30;93.20;;;;;;10400622;28;20739;-73
2022/09/28 17:02:20;;;;;;;1.30;1.20;;;14.20;94.20;;;;;;10387494;28;20213;-71
2022/09/28 17:07:20;;;;;;;2.57;1.13;;;14.10;94.80;;;;;;10392110;28;20224;-72
2022/09/28 17:12:23;;;;;;;1.37;1.27;;;13.90;95.00;;;;;;10397806;28;20225;-73
2022/09/28 17:17:28;;;;;;;2.17;1.43;;;13.80;95.90;;;;;;10393636;28;20231;-71
2022/09/28 17:22:29;;;;;;;4.67;1.80;;;13.70;96.60;;;;;;10391680;28;20221;-73
2022/09/28 17:27:31;;;;;;;4.00;2.10;;;13.60;97.40;;;;;;10395445;28;20216;-73
2022/09/28 17:32:33;;;;;;;4.87;1.47;;;13.50;98.40;;;;;;10398618;28;20279;-73
2022/09/28 17:37:34;;;;;;;3.20;1.70;;;13.40;99.90;;;;;;10395522;28;20216;-73
2022/09/28 17:42:35;;;;;;;1.93;1.33;;;13.30;99.90;;;;;;10386888;28;20228;-71
2022/09/28 17:47:36;;;;;;;3.30;1.87;;;13.30;99.90;;;;;;10394031;28;20292;-74
2022/09/28 17:52:36;;;;;;;2.70;1.40;;;13.20;99.90;;;;;;10384936;28;20221;-73
2022/09/28 17:57:37;;;;;;;2.17;1.40;;;13.20;99.90;;;;;;10407129;28;20212;-72
2022/09/28 18:02:39;;;;;;;2.37;1.57;;;13.10;99.90;;;;;;10387642;28;20232;-72
2022/09/28 18:07:41;;;;;;;2.63;1.83;;;13.10;99.90;;;;;;10394088;28;20216;-72
2022/09/28 18:12:42;;;;;;;2.53;1.43;;;13.10;99.90;;;;;;10384952;28;20218;-72
2022/09/28 18:17:43;;;;;;;1.83;1.40;;;13.00;99.90;;;;;;10393382;28;20245;-71
2022/09/28 18:22:43;;;;;;;1.50;1.30;;;13.00;99.90;;;;;;10403780;28;20216;-73
2022/09/28 18:27:44;;;;;;;3.87;1.60;;;13.00;99.90;;;;;;10384305;28;20244;-72
2022/09/28 18:32:44;;;;;;;1.40;1.30;;;12.90;99.90;;;;;;10391279;28;20617;-73
2022/09/28 18:37:45;;;;;;;3.70;2.33;;;12.80;99.90;;;;;;10385338;28;20275;-72
2022/09/28 18:42:50;;;;;;;2.30;2.00;;;12.80;99.90;;;;;;10397393;28;20220;-73
2022/09/28 18:47:50;;;;;;;2.13;1.60;;;12.70;99.90;;;;;;10395206;28;20221;-72
2022/09/28 18:53:54;;;;;;;4.60;1.87;;;12.70;99.90;;;;;;10389991;28;20220;-71
2022/09/28 18:59:14;;;;;;;7.63;2.70;;;12.60;99.90;;;;;;10285096;28;20662;-72
2022/09/28 19:09:53;;;;;;;6.33;2.40;;;12.50;99.90;;;;;;10298611;28;20708;-72
2022/09/28 19:14:53;;;;;;;4.83;2.00;;;12.30;99.90;;;;;;10279723;28;20313;-72
2022/09/28 19:20:25;;;;;;;6.23;1.93;;;12.20;99.90;;;;;;10389428;28;20266;-72
2022/09/28 19:31:12;;;;;;;6.67;1.73;;;12.00;99.90;;;;;;10383567;28;20221;-73
2022/09/28 19:36:18;;;;;;;2.70;1.63;;;12.00;99.90;;;;;;10385484;28;20220;-71
2022/09/28 19:46:40;;;;;;;2.23;1.57;;;11.90;99.90;;;;;;10383268;28;20236;-68
2022/09/28 19:51:41;;;;;;;2.27;1.53;;;11.90;99.90;;;;;;10390979;28;20232;-67
2022/09/28 19:56:44;;;;;;;1.90;1.67;;;11.80;99.90;;;;;;10382775;28;20228;-74
2022/09/28 20:01:45;;;;;;;1.57;1.47;;;11.60;99.90;;;;;;10384069;28;20990;-75
2022/09/28 20:06:45;;;;;;;2.57;1.70;;;11.40;99.90;;;;;;10407246;28;20236;-73
2022/09/28 20:11:46;;;;;;;5.57;2.20;;;11.20;99.90;;;;;;10382114;28;20644;-74
2022/09/28 20:16:46;;;;;;;2.67;1.83;;;11.00;99.90;;;;;;10384663;28;20269;-75
2022/09/28 20:21:48;;;;;;;3.50;1.60;;;10.80;99.90;;;;;;10373889;28;20232;-76
2022/09/28 20:26:48;;;;;;;2.67;1.50;;;10.70;99.90;;;;;;10400415;28;20232;-74
2022/09/28 20:31:50;;;;;;;5.07;1.90;;;10.60;99.90;;;;;;10388994;28;20235;-75
2022/09/28 20:36:51;;;;;;;2.90;1.70;;;10.50;99.90;;;;;;10381972;28;20234;-75
2022/09/28 20:41:52;;;;;;;2.73;1.63;;;10.40;99.90;;;;;;10388239;28;20220;-75
2022/09/28 20:46:53;;;;;;;3.37;2.00;;;10.30;99.90;;;;;;10386605;28;20227;-74
2022/09/28 20:51:53;;;;;;;3.10;1.93;;;10.30;99.90;;;;;;10388187;28;20239;-76
2022/09/28 20:56:54;;;;;;;5.53;2.27;;;10.20;99.90;;;;;;10386613;28;20232;-74
2022/09/28 21:01:58;;;;;;;3.00;1.93;;;10.10;99.90;;;;;;10388945;28;20225;-74
2022/09/28 21:06:58;;;;;;;2.87;2.30;;;10.00;99.90;;;;;;10382738;28;20233;-75
2022/09/28 21:11:59;;;;;;;3.43;2.30;;;10.00;99.90;;;;;;10388851;28;20242;-75
2022/09/28 21:17:00;;;;;;;3.30;2.00;;;9.90;99.90;;;;;;10387253;28;20339;-75
2022/09/28 21:22:01;;;;;;;3.13;2.10;;;9.90;99.90;;;;;;10383142;28;20275;-75
2022/09/28 21:27:02;;;;;;;3.27;2.30;;;9.80;99.90;;;;;;10387999;28;20728;-74
2022/09/28 21:32:02;;;;;;;3.03;2.13;;;9.80;99.90;;;;;;10389283;28;20243;-74
2022/09/28 21:37:03;;;;;;;3.53;2.07;;;9.70;99.90;;;;;;10405074;28;20924;-74
2022/09/28 21:42:03;;;;;;;4.50;2.63;;;9.70;99.90;;;;;;10394212;28;20620;-75
2022/09/28 21:47:04;;;;;;;3.10;2.33;;;9.70;99.90;;;;;;10386991;28;20907;-74
2022/09/28 21:52:04;;;;;;;4.53;2.10;;;9.70;99.90;;;;;;10387670;28;20329;-73
2022/09/28 21:57:05;;;;;;;4.07;2.70;;;9.70;99.90;;;;;;10394451;28;20227;-75
2022/09/28 22:02:07;;;;;;;3.43;2.40;;;9.60;99.90;;;;;;10398080;28;20629;-73
2022/09/28 22:07:11;;;;;;;8.07;2.53;;;9.60;99.90;;;;;;10400484;28;20229;-72
2022/09/28 22:12:11;;;;;;;7.83;2.80;;;9.60;99.90;;;;;;10389427;28;20293;-73
2022/09/28 22:17:12;;;;;;;4.33;2.60;;;9.50;99.90;;;;;;10402803;28;20296;-73
2022/09/28 22:22:12;;;;;;;7.67;2.90;;;9.50;99.90;;;;;;10386961;28;20232;-73
2022/09/28 22:27:14;;;;;;;5.17;2.80;;;9.50;99.90;;;;;;10394007;28;20747;-74
2022/09/28 22:32:14;;;;;;;4.80;2.77;;;9.40;99.90;;;;;;10385198;28;20265;-74
2022/09/28 22:37:15;;;;;;;6.40;3.00;;;9.40;99.90;;;;;;10392071;28;20228;-74
2022/09/28 22:42:16;;;;;;;4.97;2.70;;;9.40;99.90;;;;;;10387025;28;20238;-73
2022/09/28 22:47:16;;;;;;;8.97;3.00;;;9.40;99.90;;;;;;10386565;28;20306;-75
2022/09/28 22:52:17;;;;;;;6.27;3.20;;;9.30;99.90;;;;;;10395492;28;20650;-74
2022/09/28 22:57:17;;;;;;;4.70;3.40;;;9.30;99.90;;;;;;10395525;28;20231;-75
2022/09/28 23:02:18;;;;;;;5.07;3.07;;;9.20;99.90;;;;;;10386590;28;20224;-74
2022/09/28 23:07:20;;;;;;;6.23;3.27;;;9.20;99.90;;;;;;10387804;28;20235;-75
2022/09/28 23:12:20;;;;;;;4.90;3.13;;;9.10;99.90;;;;;;10382398;28;20236;-75
2022/09/28 23:17:21;;;;;;;7.50;3.23;;;9.10;99.90;;;;;;10392603;28;20705;-76
2022/09/28 23:22:26;;;;;;;5.03;3.27;;;9.00;99.90;;;;;;10386424;28;20274;-75
2022/09/28 23:27:27;;;;;;;3.93;3.33;;;8.90;99.90;;;;;;10383012;28;20227;-75
2022/09/28 23:32:27;;;;;;;4.13;3.20;;;8.90;99.90;;;;;;10386914;28;20228;-74
2022/09/28 23:37:28;;;;;;;5.03;3.50;;;8.80;99.90;;;;;;10391163;28;20234;-73
2022/09/28 23:42:29;;;;;;;4.90;3.37;;;8.80;99.90;;;;;;10384084;28;20228;-73
2022/09/28 23:47:29;;;;;;;4.77;3.50;;;8.70;99.90;;;;;;10402521;28;20262;-74
2022/09/28 23:52:30;;;;;;;6.97;3.47;;;8.60;99.90;;;;;;10389375;28;20257;-74
2022/09/28 23:57:30;;;;;;;7.50;3.57;;;8.50;99.90;;;;;;10384642;28;20255;-73
